Flight Track Log - Related Links

Times and Time Zones

All times are in EDT time to prevent confusion due to time zone crossing. See the CSJ405 flight status page for this flight to view local times or setup timezone preferences in your user account.

Time Position Orientation Groundspeed Altitude Reporting Facility
EDT Latitude Longitude Course Direction KTS MPH feet Rate Location/Type
Thu 05:25:16 PM 42.7589 -73.8058 290° West 82 94 1,000  Level Boston Center
Thu 05:26:17 PM 42.7650 -73.8286 290° West 116 133 2,400 1,388 Climbing Boston Center
Thu 05:27:17 PM 42.7356 -73.8422 199° South 123 142 3,800 1,357 Climbing Boston Center
Thu 05:28:12 PM 42.7064 -73.8472 187° South 120 138 5,000 1,409 Climbing Boston Center
Thu 05:29:12 PM 42.6831 -73.8692 215° Southwest 95 109 6,500 1,323 Climbing Boston Center
Thu 05:30:19 PM 42.6536 -73.8911 209° Southwest 96 110 7,800 738 Climbing Boston Center
Thu 05:31:14 PM 42.6264 -73.9158 214° Southwest 148 170 8,000 52 Climbing Boston Center
Thu 05:32:14 PM 42.5822 -73.9458 207° Southwest 188 216 7,900 -50 Descending Boston Center
Thu 05:33:15 PM 42.5381 -73.9731 204° Southwest 181 208 7,900  Level Boston Center
Thu 05:34:22 PM 42.4917 -74.0028 205° Southwest 174 200 7,900  Level Boston Center
Thu 05:35:23 PM 42.4456 -74.0383 210° Southwest 176 203 7,900  Level Boston Center
Thu 05:36:23 PM 42.4014 -74.0653 204° Southwest 177 204 7,900 51 Level Boston Center
Thu 05:37:20 PM 42.3611 -74.0950 209° Southwest 192 221 8,000 51 Climbing Boston Center
Thu 05:38:20 PM 42.3233 -74.1278 213° Southwest 192 221 8,000  Level Boston Center
Thu 05:39:20 PM 42.2747 -74.1572 204° Southwest 186 214 8,000 50 Level Boston Center
Thu 05:40:20 PM 42.2347 -74.1842 207° Southwest 181 208 8,100  Climbing Boston Center
Thu 05:41:20 PM 42.1883 -74.2194 209° Southwest 176 203 8,000 -50 Descending Boston Center
Thu 05:42:20 PM 42.1506 -74.2464 208° Southwest 176 203 8,000  Level Boston Center
Thu 05:43:20 PM 42.1106 -74.2758 209° Southwest 176 203 8,000  Level Boston Center
Thu 05:44:20 PM 42.0619 -74.3081 206° Southwest 181 208 8,000  Level Boston Center
Thu 05:45:20 PM 42.0094 -74.3344 200° South 181 208 8,000  Level Boston Center
Thu 05:46:20 PM 41.9675 -74.3500 195° South 176 203 8,000  Level Boston Center
Thu 05:47:20 PM 41.9128 -74.3733 198° South 181 208 8,000  Level Boston Center
Thu 05:48:20 PM 41.8667 -74.3914 196° South 191 220 8,000 50 Level Boston Center
Thu 05:49:20 PM 41.8122 -74.4150 198° South 191 220 8,100  Climbing Boston Center
Thu 05:50:20 PM 41.7681 -74.4358 199° South 191 220 8,000 -50 Descending Boston Center
Thu 05:51:20 PM 41.7133 -74.4592 198° South 191 220 8,000  Level Boston Center
Thu 05:52:20 PM 41.6692 -74.4800 199° South 191 220 8,000  Level Boston Center
Thu 05:53:20 PM 41.6125 -74.5031 197° South 191 220 8,000 -500 Level Boston Center
Thu 05:54:20 PM 41.5683 -74.5267 202° Southwest 191 220 7,000 -850 Descending Boston Center
Thu 05:55:20 PM 41.5114 -74.5553 201° Southwest 191 220 6,300 -450 Descending Boston Center
Thu 05:56:20 PM 41.4675 -74.5733 197° South 191 220 6,100 -64 Descending Boston Center
Thu 05:58:28 PM 41.3667 -74.6167 198° South 173 199 6,100 -96 Level New York TRACON
Thu 05:59:28 PM 41.3167 -74.6333 194° South 171 197 5,800 -500 Descending New York TRACON
Thu 06:00:28 PM 41.2667 -74.6333 180° South 169 194 5,100 -350 Descending New York TRACON
Thu 06:01:28 PM 41.2333 -74.6000 143° Southeast 164 189 5,100 -450 Level New York TRACON
Thu 06:02:28 PM 41.2000 -74.5500 132° Southeast 177 204 4,200 -694 Descending New York TRACON
Thu 06:03:29 PM 41.1667 -74.5167 143° Southeast 170 196 3,700 -545 Descending New York TRACON
Thu 06:04:29 PM 41.1167 -74.4833 153° Southeast 166 191 3,100 -300 Descending New York TRACON
Thu 06:05:29 PM 41.0833 -74.4500 143° Southeast 164 189 3,100  Level New York TRACON
Thu 06:06:29 PM 41.0500 -74.4333 159° South 160 184 3,100  Level New York TRACON
Thu 06:07:29 PM 41.0000 -74.4000 153° Southeast 163 188 3,100 -200 Level New York TRACON
Thu 06:08:29 PM 40.9667 -74.3667 143° Southeast 167 192 2,700 -550 Descending New York TRACON
Thu 06:09:29 PM 40.9333 -74.3167 131° Southeast 165 190 2,000 -750 Descending New York TRACON
Thu 06:10:29 PM 40.9000 -74.2833 143° Southeast 161 185 1,200 -800 Descending New York TRACON
Thu 06:12:00 PM 40.8752 -74.2814 128° Southeast  Level Estimated
Thu 06:19:00 PM 40.8752 -74.2814 128° Southeast  Level Estimated
Thu 06:20:00 PM 40.8752 -74.2814 128° Southeast  Level Estimated
Thu 06:21:00 PM 40.8752 -74.2814 128° Southeast  Level Estimated
Thu 06:22:00 PM 40.8752 -74.2814 128° Southeast  Level Estimated

Login

Don't have an account? Register now (free) for customized features, flight alerts, and more!